createdAt,value
2018-09-11T00:00:51.468Z,2.10
2018-09-11T00:01:55.818Z,2.10
2018-09-11T00:02:59.829Z,2.33
2018-09-11T00:04:03.940Z,2.17
2018-09-11T00:05:08.056Z,2.00
2018-09-11T00:06:12.434Z,2.10
2018-09-11T00:07:16.595Z,2.02
2018-09-11T00:08:20.664Z,2.08
2018-09-11T00:09:25.108Z,2.05
2018-09-11T00:10:29.103Z,2.20
2018-09-11T00:11:33.242Z,2.05
2018-09-11T00:12:37.427Z,2.33
2018-09-11T00:13:41.510Z,2.17
2018-09-11T00:14:45.617Z,2.05
2018-09-11T00:15:49.875Z,2.30
2018-09-11T00:16:53.925Z,2.08
2018-09-11T00:17:58.396Z,1.98
2018-09-11T00:19:02.561Z,2.25
2018-09-11T00:20:06.802Z,2.10
2018-09-11T00:21:11.162Z,2.02
2018-09-11T00:22:15.430Z,2.02
2018-09-11T00:23:19.544Z,2.10
2018-09-11T00:24:23.604Z,2.30
2018-09-11T00:25:27.829Z,2.12
2018-09-11T00:26:31.906Z,2.20
2018-09-11T00:27:35.984Z,2.25
2018-09-11T00:28:40.065Z,2.30
2018-09-11T00:29:44.229Z,2.25
2018-09-11T00:30:48.983Z,2.02
2018-09-11T00:31:53.084Z,1.90
2018-09-11T00:32:57.167Z,2.25
2018-09-11T00:34:01.761Z,2.00
2018-09-11T00:35:05.852Z,2.50
2018-09-11T00:36:10.008Z,2.30
2018-09-11T00:37:14.372Z,2.10
2018-09-11T00:38:18.455Z,2.08
2018-09-11T00:39:22.562Z,2.05
2018-09-11T00:40:26.927Z,2.27
2018-09-11T00:41:31.024Z,2.50
2018-09-11T00:42:35.527Z,2.35
2018-09-11T00:43:39.630Z,2.30
2018-09-11T00:44:43.731Z,2.00
2018-09-11T00:45:48.044Z,2.40
2018-09-11T00:46:52.155Z,2.00
2018-09-11T00:47:56.209Z,2.12
2018-09-11T00:49:00.278Z,2.20
2018-09-11T00:50:04.995Z,2.12
2018-09-11T00:51:09.160Z,2.10
2018-09-11T00:52:13.296Z,2.20
2018-09-11T00:53:17.968Z,1.90
2018-09-11T00:54:22.096Z,2.10
2018-09-11T00:55:26.167Z,2.20
2018-09-11T00:56:30.299Z,2.00
2018-09-11T00:57:34.405Z,2.10
2018-09-11T00:58:38.476Z,2.05
2018-09-11T00:59:42.497Z,2.55
2018-09-11T01:00:46.619Z,2.30
2018-09-11T01:01:50.670Z,2.20
2018-09-11T01:02:55.048Z,2.27
2018-09-11T01:03:59.217Z,2.30
2018-09-11T01:05:03.335Z,1.95
2018-09-11T01:06:07.646Z,2.25
2018-09-11T01:07:11.792Z,2.08
2018-09-11T01:08:15.894Z,2.20
2018-09-11T01:09:20.218Z,2.30
2018-09-11T01:10:24.283Z,2.30
2018-09-11T01:11:28.387Z,2.20
2018-09-11T01:12:32.675Z,2.30
2018-09-11T01:13:36.800Z,2.40
2018-09-11T01:14:40.899Z,2.25
2018-09-11T01:15:44.981Z,2.00
2018-09-11T01:16:49.285Z,1.92
2018-09-11T01:17:53.452Z,1.98
2018-09-11T01:18:57.496Z,2.10
2018-09-11T01:20:01.817Z,2.25
2018-09-11T01:21:11.974Z,2.20
2018-09-11T01:22:16.666Z,2.08
2018-09-11T01:23:23.506Z,2.35
2018-09-11T01:24:27.583Z,2.10
2018-09-11T01:25:31.852Z,2.17
2018-09-11T01:26:36.352Z,2.35
2018-09-11T01:27:40.442Z,2.08
2018-09-11T01:28:44.565Z,2.30
2018-09-11T01:29:48.634Z,1.90
2018-09-11T01:30:52.825Z,2.08
2018-09-11T01:31:56.887Z,2.20
2018-09-11T01:33:01.008Z,2.30
2018-09-11T01:34:05.398Z,2.30
2018-09-11T01:35:09.443Z,2.35
2018-09-11T01:36:13.661Z,2.40
2018-09-11T01:37:17.811Z,2.17
2018-09-11T01:38:21.910Z,2.17
2018-09-11T01:39:26.056Z,2.33
2018-09-11T01:40:30.210Z,2.12
2018-09-11T01:41:34.449Z,2.33
2018-09-11T01:42:38.620Z,2.00
2018-09-11T01:43:42.722Z,2.08
2018-09-11T01:44:46.735Z,2.02
2018-09-11T01:45:50.813Z,2.00
2018-09-11T01:46:55.308Z,2.20
2018-09-11T01:47:59.451Z,2.10
2018-09-11T01:49:03.956Z,2.12
2018-09-11T01:50:08.065Z,2.42
2018-09-11T01:51:12.191Z,2.40
2018-09-11T01:52:16.308Z,2.22
2018-09-11T01:53:20.753Z,2.20
2018-09-11T01:54:24.876Z,2.20
2018-09-11T01:55:28.964Z,2.20
2018-09-11T01:56:33.127Z,2.30
2018-09-11T01:57:37.337Z,2.40
2018-09-11T01:58:41.514Z,2.10
2018-09-11T01:59:45.720Z,1.98
2018-09-11T02:00:49.836Z,2.10
2018-09-11T02:01:54.012Z,2.25
2018-09-11T02:02:58.078Z,2.20
2018-09-11T02:04:02.220Z,2.30
2018-09-11T02:05:06.348Z,2.20
2018-09-11T02:06:10.489Z,2.40
2018-09-11T02:07:14.604Z,2.15
2018-09-11T02:08:18.722Z,2.17
2018-09-11T02:09:22.938Z,2.00
2018-09-11T02:10:26.944Z,2.10
2018-09-11T02:11:31.018Z,2.40
2018-09-11T02:12:35.109Z,2.25
2018-09-11T02:13:39.336Z,2.12
2018-09-11T02:14:43.690Z,2.00
2018-09-11T02:15:47.776Z,2.10
2018-09-11T02:16:52.054Z,2.33
2018-09-11T02:17:56.111Z,2.05
2018-09-11T02:19:00.213Z,2.33
2018-09-11T02:20:04.487Z,2.40
2018-09-11T02:21:08.858Z,2.10
2018-09-11T02:22:12.980Z,2.30
2018-09-11T02:23:17.028Z,2.25
2018-09-11T02:24:21.620Z,2.35
2018-09-11T02:25:25.656Z,1.98
2018-09-11T02:26:29.714Z,2.08
2018-09-11T02:27:34.075Z,1.85
2018-09-11T02:28:38.181Z,2.45
2018-09-11T02:29:43.226Z,2.00
2018-09-11T02:30:47.346Z,2.20
2018-09-11T02:31:51.574Z,2.27
2018-09-11T02:34:06.155Z,1.92
2018-09-11T02:35:10.308Z,2.10
2018-09-11T02:36:14.447Z,2.50
2018-09-11T02:37:18.804Z,2.30
2018-09-11T02:38:22.903Z,2.40
2018-09-11T02:39:27.018Z,2.20
2018-09-11T02:40:31.134Z,2.12
2018-09-11T02:41:35.419Z,2.10
2018-09-11T02:42:39.432Z,2.40
2018-09-11T02:43:43.497Z,2.10
2018-09-11T02:44:47.639Z,1.85
2018-09-11T02:45:51.765Z,2.20
2018-09-11T02:46:55.861Z,2.10
2018-09-11T02:47:59.921Z,1.90
2018-09-11T02:49:04.047Z,2.30
2018-09-11T02:50:08.378Z,1.80
2018-09-11T02:51:12.765Z,1.98
2018-09-11T02:52:16.905Z,1.70
2018-09-11T02:53:21.076Z,1.82
2018-09-11T02:54:25.155Z,2.20
2018-09-11T02:55:29.534Z,1.80
2018-09-11T02:56:33.871Z,2.00
2018-09-11T02:57:37.925Z,2.00
2018-09-11T02:58:42.080Z,2.02
2018-09-11T02:59:46.596Z,1.98
2018-09-11T03:00:50.732Z,1.92
2018-09-11T03:01:54.848Z,2.00
2018-09-11T03:02:58.959Z,2.12
2018-09-11T03:04:03.068Z,2.10
2018-09-11T03:05:07.207Z,2.42
2018-09-11T03:06:11.588Z,2.10
2018-09-11T03:07:15.866Z,2.00
2018-09-11T03:08:19.893Z,1.98
2018-09-11T03:09:23.971Z,2.12
2018-09-11T03:10:28.039Z,1.95
2018-09-11T03:11:32.085Z,1.80
2018-09-11T03:12:36.153Z,2.17
2018-09-11T03:13:40.216Z,2.10
2018-09-11T03:14:44.278Z,2.00
2018-09-11T03:15:48.496Z,2.33
2018-09-11T03:16:52.600Z,1.90
2018-09-11T03:17:56.683Z,2.10
2018-09-11T03:19:00.911Z,2.00
2018-09-11T03:20:05.192Z,2.25
2018-09-11T03:21:09.297Z,1.95
2018-09-11T03:22:14.297Z,2.30
2018-09-11T03:23:18.307Z,2.08
2018-09-11T03:24:22.409Z,2.25
2018-09-11T03:25:26.561Z,2.22
2018-09-11T03:26:30.675Z,2.33
2018-09-11T03:27:35.183Z,2.10
2018-09-11T03:28:39.308Z,2.00
2018-09-11T03:29:43.585Z,2.33
2018-09-11T03:30:47.786Z,2.45
2018-09-11T03:31:51.933Z,2.35
2018-09-11T03:32:56.041Z,2.40
2018-09-11T03:34:00.144Z,2.20
2018-09-11T03:35:04.580Z,2.20
2018-09-11T03:36:08.812Z,2.67
2018-09-11T03:37:12.891Z,2.55
2018-09-11T03:38:17.122Z,2.20
2018-09-11T03:39:21.290Z,2.15
2018-09-11T03:40:25.389Z,2.20
2018-09-11T03:41:29.473Z,2.30
2018-09-11T03:42:33.590Z,2.52
2018-09-11T03:43:37.707Z,2.30
2018-09-11T03:44:41.919Z,2.35
2018-09-11T03:45:48.501Z,2.25
2018-09-11T03:46:52.535Z,2.20
2018-09-11T03:47:56.567Z,2.20
2018-09-11T03:49:00.653Z,2.30
2018-09-11T03:50:04.767Z,2.30
2018-09-11T03:51:08.921Z,2.17
2018-09-11T03:52:13.476Z,2.30
2018-09-11T03:53:17.730Z,2.20
2018-09-11T03:54:22.028Z,2.33
2018-09-11T03:55:26.137Z,2.25
2018-09-11T03:56:30.578Z,2.50
2018-09-11T03:57:34.812Z,2.10
2018-09-11T03:58:38.850Z,2.10
2018-09-11T03:59:43.397Z,2.02
2018-09-11T04:00:47.432Z,2.30
2018-09-11T04:01:51.469Z,2.30
2018-09-11T04:02:55.544Z,2.22
2018-09-11T04:03:59.658Z,2.35
2018-09-11T04:05:03.720Z,2.33
2018-09-11T04:06:07.846Z,2.55
2018-09-11T04:07:11.929Z,2.22
2018-09-11T04:08:15.993Z,2.20
2018-09-11T04:09:20.122Z,2.50
2018-09-11T04:10:24.166Z,2.40
2018-09-11T04:11:28.419Z,2.50
2018-09-11T04:12:32.566Z,2.67
2018-09-11T04:13:36.682Z,2.30
2018-09-11T04:14:40.774Z,2.60
2018-09-11T04:15:44.787Z,2.40
2018-09-11T04:16:48.904Z,2.37
2018-09-11T04:17:53.188Z,2.12
2018-09-11T04:18:57.288Z,2.47
2018-09-11T04:20:01.314Z,2.60
2018-09-11T04:21:05.765Z,2.27
2018-09-11T04:22:09.911Z,2.30
2018-09-11T04:23:13.981Z,2.17
2018-09-11T04:24:18.515Z,2.35
2018-09-11T04:25:22.642Z,2.12
2018-09-11T04:26:26.811Z,2.25
2018-09-11T04:27:30.881Z,2.17
2018-09-11T04:28:35.164Z,2.42
2018-09-11T04:29:39.698Z,2.00
2018-09-11T04:30:43.713Z,2.35
2018-09-11T04:31:47.838Z,2.33
2018-09-11T04:32:51.940Z,2.25
2018-09-11T04:33:56.570Z,2.25
2018-09-11T04:35:00.701Z,2.37
2018-09-11T04:36:05.147Z,2.45
2018-09-11T04:37:09.210Z,2.10
2018-09-11T04:38:13.414Z,2.37
2018-09-11T04:39:17.732Z,2.15
2018-09-11T04:40:21.875Z,2.30
2018-09-11T04:41:25.973Z,2.37
2018-09-11T04:42:30.054Z,2.22
2018-09-11T04:43:34.213Z,2.10
2018-09-11T04:44:38.388Z,2.20
2018-09-11T04:45:42.494Z,2.10
2018-09-11T04:46:46.902Z,2.17
2018-09-11T04:47:51.148Z,2.60
2018-09-11T04:48:55.243Z,2.33
2018-09-11T04:49:59.318Z,2.05
2018-09-11T04:51:03.458Z,2.50
2018-09-11T04:52:07.951Z,2.20
2018-09-11T04:53:12.299Z,2.45
2018-09-11T04:54:16.348Z,1.95
2018-09-11T04:55:20.544Z,2.25
2018-09-11T04:56:25.024Z,2.50
2018-09-11T04:57:29.121Z,2.30
2018-09-11T04:58:33.258Z,2.05
2018-09-11T04:59:37.319Z,2.37
2018-09-11T05:00:41.420Z,2.10
2018-09-11T05:01:45.773Z,2.08
2018-09-11T05:02:49.734Z,2.17
2018-09-11T05:03:53.857Z,2.37
2018-09-11T05:04:58.252Z,2.40
2018-09-11T05:06:02.387Z,2.30
2018-09-11T05:07:06.577Z,2.60
2018-09-11T05:08:10.681Z,2.25
2018-09-11T05:09:14.967Z,2.40
2018-09-11T05:10:19.111Z,2.60
2018-09-11T05:11:23.173Z,2.55
2018-09-11T05:12:27.265Z,2.33
2018-09-11T05:13:31.552Z,2.50
2018-09-11T05:14:35.672Z,2.45
2018-09-11T05:15:39.715Z,2.58
2018-09-11T05:16:43.794Z,2.40
2018-09-11T05:17:47.911Z,2.45
2018-09-11T05:18:52.054Z,2.70
2018-09-11T05:19:56.147Z,2.70
2018-09-11T05:21:00.776Z,2.40
2018-09-11T05:22:04.978Z,2.58
2018-09-11T05:23:09.091Z,2.52
2018-09-11T05:24:13.178Z,2.58
2018-09-11T05:25:17.476Z,2.77
2018-09-11T05:26:21.617Z,2.60
2018-09-11T05:27:25.714Z,2.50
2018-09-11T05:28:29.759Z,2.92
2018-09-11T05:29:33.888Z,2.70
2018-09-11T05:30:37.919Z,2.70
2018-09-11T05:31:42.478Z,2.87
2018-09-11T05:32:46.556Z,2.90
2018-09-11T05:33:50.663Z,2.85
2018-09-11T05:34:55.030Z,2.85
2018-09-11T05:35:59.255Z,2.85
2018-09-11T05:37:03.376Z,2.83
2018-09-11T05:38:07.801Z,3.00
2018-09-11T05:39:12.452Z,2.42
2018-09-11T05:40:16.647Z,2.85
2018-09-11T05:41:20.830Z,2.80
2018-09-11T05:42:24.926Z,2.80
2018-09-11T05:43:29.072Z,2.72
2018-09-11T05:44:33.127Z,2.37
2018-09-11T05:45:37.526Z,2.92
2018-09-11T05:46:41.790Z,2.90
2018-09-11T05:47:46.235Z,2.95
2018-09-11T05:48:50.402Z,2.77
2018-09-11T05:49:54.528Z,3.20
2018-09-11T05:50:58.819Z,3.00
2018-09-11T05:52:02.954Z,3.00
2018-09-11T05:53:07.247Z,3.10
2018-09-11T05:54:11.541Z,2.87
2018-09-11T05:55:15.584Z,2.77
2018-09-11T05:56:20.155Z,2.87
2018-09-11T05:57:24.257Z,2.75
2018-09-11T05:58:28.617Z,3.20
2018-09-11T05:59:32.650Z,3.05
2018-09-11T06:00:36.950Z,2.87
2018-09-11T06:01:41.133Z,2.85
2018-09-11T06:02:51.788Z,2.85
2018-09-11T06:03:56.191Z,2.92
2018-09-11T06:05:00.259Z,2.85
2018-09-11T06:06:05.367Z,2.70
2018-09-11T06:07:09.571Z,3.05
2018-09-11T06:08:13.796Z,2.70
2018-09-11T06:09:20.801Z,2.83
2018-09-11T06:10:25.122Z,2.83
2018-09-11T06:11:29.499Z,3.20
2018-09-11T06:12:33.630Z,3.30
2018-09-11T06:13:37.741Z,2.80
2018-09-11T06:14:41.926Z,3.02
2018-09-11T06:15:46.010Z,2.62
2018-09-11T06:16:51.290Z,2.90
2018-09-11T06:17:55.402Z,3.20
2018-09-11T06:18:59.627Z,2.85
2018-09-11T06:20:03.782Z,2.62
2018-09-11T06:21:08.022Z,2.85
2018-09-11T06:22:12.629Z,2.92
2018-09-11T06:23:16.915Z,2.85
2018-09-11T06:24:22.398Z,3.05
2018-09-11T06:25:26.710Z,2.70
2018-09-11T06:26:31.205Z,2.77
2018-09-11T06:27:35.698Z,3.17
2018-09-11T06:28:40.694Z,2.90
2018-09-11T06:29:45.868Z,2.70
2018-09-11T06:30:50.777Z,3.12
2018-09-11T06:31:54.996Z,2.80
2018-09-11T06:32:59.079Z,2.83
2018-09-11T06:34:03.413Z,2.70
2018-09-11T06:35:07.984Z,3.10
2018-09-11T06:36:12.187Z,3.00
2018-09-11T06:37:16.307Z,2.70
2018-09-11T06:38:20.608Z,2.30
2018-09-11T06:39:25.170Z,2.83
2018-09-11T06:40:29.418Z,2.67
2018-09-11T06:41:33.620Z,2.60
2018-09-11T06:42:37.954Z,2.60
2018-09-11T06:43:42.301Z,2.80
2018-09-11T06:44:46.749Z,2.50
2018-09-11T06:45:50.726Z,2.90
2018-09-11T06:46:55.045Z,2.90
2018-09-11T06:47:59.170Z,2.95
2018-09-11T06:49:04.052Z,2.60
2018-09-11T06:50:08.396Z,3.15
2018-09-11T06:51:13.233Z,2.85
2018-09-11T06:52:17.503Z,2.90
2018-09-11T06:53:22.385Z,2.90
2018-09-11T06:54:26.512Z,3.20
2018-09-11T06:55:30.643Z,2.60
2018-09-11T06:56:35.023Z,3.05
2018-09-11T06:57:39.383Z,2.77
2018-09-11T06:58:43.700Z,3.20
2018-09-11T06:59:48.349Z,2.72
2018-09-11T07:00:53.363Z,3.10
2018-09-11T07:01:57.561Z,2.77
2018-09-11T07:03:02.101Z,3.00
2018-09-11T07:04:06.983Z,2.60
2018-09-11T07:05:11.121Z,2.58
2018-09-11T07:06:15.213Z,2.70
2018-09-11T07:07:19.464Z,2.90
2018-09-11T07:08:23.553Z,2.60
2018-09-11T07:09:27.777Z,2.55
2018-09-11T07:10:32.017Z,3.08
2018-09-11T07:11:36.423Z,2.67
2018-09-11T07:12:40.589Z,2.83
2018-09-11T07:13:44.826Z,3.00
2018-09-11T07:14:49.275Z,3.08
2018-09-11T07:15:54.136Z,2.92
2018-09-11T07:16:58.245Z,2.60
2018-09-11T07:18:02.403Z,2.92
2018-09-11T07:19:06.613Z,2.70
2018-09-11T07:20:11.051Z,2.87
2018-09-11T07:21:15.305Z,2.85
2018-09-11T07:22:19.522Z,2.52
2018-09-11T07:23:23.677Z,2.85
2018-09-11T07:24:27.769Z,2.58
2018-09-11T07:25:32.060Z,2.52
2018-09-11T07:26:36.136Z,2.80
2018-09-11T07:27:40.361Z,2.60
2018-09-11T07:28:44.606Z,2.80
2018-09-11T07:29:49.011Z,2.67
2018-09-11T07:30:53.285Z,3.00
2018-09-11T07:31:57.435Z,3.65
2018-09-11T07:33:01.729Z,3.00
2018-09-11T07:34:06.026Z,2.42
2018-09-11T07:35:10.335Z,2.80
2018-09-11T07:36:14.860Z,2.67
2018-09-11T07:37:19.033Z,2.80
2018-09-11T07:38:23.114Z,2.87
2018-09-11T07:39:27.164Z,3.02
2018-09-11T07:40:31.773Z,2.77
2018-09-11T07:41:36.305Z,2.62
2018-09-11T07:42:40.396Z,2.75
2018-09-11T07:43:44.522Z,2.60
2018-09-11T07:44:48.938Z,2.60
2018-09-11T07:45:53.199Z,2.85
2018-09-11T07:46:57.292Z,3.00
2018-09-11T07:48:01.406Z,3.15
2018-09-11T07:49:05.468Z,2.65
2018-09-11T07:50:09.907Z,2.60
2018-09-11T07:51:14.057Z,2.40
2018-09-11T07:52:18.150Z,3.02
2018-09-11T07:53:22.231Z,2.65
2018-09-11T07:54:26.725Z,2.75
2018-09-11T07:55:30.848Z,2.50
2018-09-11T07:56:35.076Z,2.60
2018-09-11T07:57:39.482Z,2.75
2018-09-11T07:58:43.584Z,2.58
2018-09-11T07:59:47.773Z,2.80
2018-09-11T08:00:51.892Z,2.80
2018-09-11T08:01:56.221Z,2.80
2018-09-11T08:03:00.356Z,2.70
2018-09-11T08:04:04.497Z,2.72
2018-09-11T08:05:08.952Z,3.05
2018-09-11T08:06:13.077Z,2.75
2018-09-11T08:07:17.210Z,2.50
2018-09-11T08:08:21.820Z,2.83
2018-09-11T08:09:25.965Z,2.98
2018-09-11T08:10:30.477Z,3.05
2018-09-11T08:11:34.924Z,2.77
2018-09-11T08:12:39.026Z,3.00
2018-09-11T08:13:43.259Z,2.62
2018-09-11T08:14:47.902Z,2.80
2018-09-11T08:15:51.968Z,3.05
2018-09-11T08:16:56.126Z,2.70
2018-09-11T08:18:00.211Z,2.90
2018-09-11T08:19:04.549Z,2.72
2018-09-11T08:20:09.253Z,2.45
2018-09-11T08:21:13.613Z,2.70
2018-09-11T08:22:18.232Z,2.95
2018-09-11T08:23:22.417Z,2.50
2018-09-11T08:24:26.685Z,2.47
2018-09-11T08:25:30.876Z,2.75
2018-09-11T08:26:35.156Z,3.00
2018-09-11T08:27:39.658Z,2.70
2018-09-11T08:28:43.838Z,2.87
2018-09-11T08:29:47.988Z,2.83
2018-09-11T08:30:52.384Z,2.50
2018-09-11T08:31:56.728Z,2.93
2018-09-11T08:33:01.940Z,2.90
2018-09-11T08:34:06.191Z,2.50
2018-09-11T08:35:10.540Z,2.80
2018-09-11T08:36:14.586Z,2.60
2018-09-11T08:37:18.772Z,2.77
2018-09-11T08:38:23.010Z,2.90
2018-09-11T08:39:27.411Z,3.30
2018-09-11T08:40:31.839Z,3.07
2018-09-11T08:41:36.508Z,2.90
2018-09-11T08:42:41.006Z,2.80
2018-09-11T08:43:45.164Z,2.80
2018-09-11T08:44:49.478Z,2.60
2018-09-11T08:45:53.966Z,2.70
2018-09-11T08:46:58.193Z,3.00
2018-09-11T08:48:02.414Z,2.90
2018-09-11T08:49:07.030Z,3.00
2018-09-11T08:50:11.197Z,2.87
2018-09-11T08:51:15.396Z,2.90
2018-09-11T08:52:19.840Z,2.93
2018-09-11T08:53:24.368Z,3.10
2018-09-11T08:54:28.661Z,2.60
2018-09-11T08:55:32.781Z,2.80
2018-09-11T08:56:37.035Z,2.93
2018-09-11T08:57:41.376Z,2.30
2018-09-11T08:58:45.456Z,2.20
2018-09-11T08:59:49.678Z,2.60
2018-09-11T09:00:54.326Z,2.63
2018-09-11T09:01:58.624Z,2.60
2018-09-11T09:03:02.870Z,2.90
2018-09-11T09:04:13.821Z,2.63
2018-09-11T09:05:18.414Z,3.00
2018-09-11T09:06:22.709Z,3.00
2018-09-11T09:07:27.147Z,3.30
2018-09-11T09:08:31.611Z,3.30
2018-09-11T09:09:35.953Z,3.33
2018-09-11T09:10:40.133Z,2.90
2018-09-11T09:11:44.481Z,2.87
2018-09-11T09:12:48.574Z,2.50
2018-09-11T09:13:52.635Z,2.93
2018-09-11T09:14:57.315Z,2.40
2018-09-11T09:16:01.445Z,2.63
2018-09-11T09:17:05.587Z,2.70
2018-09-11T09:18:09.873Z,2.27
2018-09-11T09:19:14.616Z,2.40
2018-09-11T09:20:19.019Z,2.27
2018-09-11T09:21:23.379Z,2.40
2018-09-11T09:22:27.591Z,2.60
2018-09-11T09:23:31.783Z,2.40
2018-09-11T09:24:35.953Z,2.60
2018-09-11T09:25:40.544Z,2.40
2018-09-11T09:26:44.822Z,2.73
2018-09-11T09:27:48.989Z,2.43
2018-09-11T09:28:53.618Z,2.90
2018-09-11T09:29:57.816Z,2.83
2018-09-11T09:31:01.910Z,2.70
2018-09-11T09:32:06.033Z,2.43
2018-09-11T09:33:10.858Z,2.67
2018-09-11T09:34:14.961Z,2.83
2018-09-11T09:35:19.088Z,2.80
2018-09-11T09:36:23.379Z,2.60
2018-09-11T09:37:27.605Z,2.50
2018-09-11T09:38:31.872Z,2.30
2018-09-11T09:39:36.095Z,2.37
2018-09-11T09:40:40.287Z,2.37
2018-09-11T09:41:44.604Z,2.40
2018-09-11T09:42:49.000Z,2.67
2018-09-11T09:43:53.141Z,2.43
2018-09-11T09:44:57.411Z,2.67
2018-09-11T09:46:01.579Z,2.20
2018-09-11T09:47:05.869Z,2.50
2018-09-11T09:48:09.965Z,2.30
2018-09-11T09:49:14.534Z,2.40
2018-09-11T09:50:18.778Z,2.30
2018-09-11T09:51:22.938Z,2.57
2018-09-11T09:52:27.079Z,3.10
2018-09-11T09:53:31.351Z,2.47
2018-09-11T09:54:35.660Z,2.60
2018-09-11T09:55:39.885Z,2.20
2018-09-11T09:56:44.051Z,2.20
2018-09-11T09:57:48.130Z,2.50
2018-09-11T09:58:52.269Z,2.40
2018-09-11T09:59:56.358Z,2.50
2018-09-11T10:01:05.816Z,2.43
2018-09-11T10:02:15.258Z,2.60
2018-09-11T10:03:19.415Z,2.50
2018-09-11T10:04:23.485Z,2.50
2018-09-11T10:05:27.354Z,2.43
2018-09-11T10:06:31.509Z,2.47
2018-09-11T10:07:35.642Z,2.60
2018-09-11T10:08:39.758Z,2.73
2018-09-11T10:09:43.914Z,2.70
2018-09-11T10:10:48.126Z,2.43
2018-09-11T10:11:52.554Z,2.40
2018-09-11T10:12:56.886Z,2.53
2018-09-11T10:14:01.063Z,2.47
2018-09-11T10:15:05.232Z,2.47
2018-09-11T10:16:10.019Z,2.43
2018-09-11T10:17:14.116Z,2.57
2018-09-11T10:18:18.238Z,2.37
2018-09-11T10:19:22.686Z,2.33
2018-09-11T10:20:26.755Z,2.30
2018-09-11T10:21:30.893Z,2.30
2018-09-11T10:22:35.039Z,2.30
2018-09-11T10:23:39.145Z,2.20
2018-09-11T10:24:43.228Z,2.67
2018-09-11T10:25:47.874Z,2.53
2018-09-11T10:26:52.357Z,2.37
2018-09-11T10:27:56.726Z,2.30
2018-09-11T10:29:00.901Z,2.10
2018-09-11T10:30:05.448Z,2.37
2018-09-11T10:31:09.563Z,2.37
2018-09-11T10:32:13.917Z,2.50
2018-09-11T10:33:18.259Z,2.10
2018-09-11T10:34:22.776Z,2.47
2018-09-11T10:35:26.862Z,2.20
2018-09-11T10:36:31.058Z,2.20
2018-09-11T10:37:35.748Z,2.20
2018-09-11T10:38:39.898Z,2.30
2018-09-11T10:39:44.005Z,2.30
2018-09-11T10:40:48.374Z,2.40
2018-09-11T10:41:52.543Z,2.20
2018-09-11T10:42:56.714Z,2.50
2018-09-11T10:44:00.873Z,2.30
2018-09-11T10:45:05.677Z,2.60
2018-09-11T10:46:09.801Z,2.43
2018-09-11T10:47:13.884Z,2.27
2018-09-11T10:48:17.976Z,2.63
2018-09-11T10:49:22.571Z,2.80
2018-09-11T10:50:26.656Z,2.47
2018-09-11T10:51:30.726Z,2.03
2018-09-11T10:52:34.884Z,2.40
2018-09-11T10:53:39.025Z,2.37
2018-09-11T10:54:43.710Z,2.30
2018-09-11T10:55:47.972Z,2.40
2018-09-11T10:56:52.222Z,2.50
2018-09-11T10:57:56.318Z,2.40
2018-09-11T10:59:00.472Z,2.30
2018-09-11T11:00:05.252Z,2.63
2018-09-11T11:01:10.956Z,2.30
2018-09-11T11:02:15.475Z,2.30
2018-09-11T11:03:22.555Z,2.67
2018-09-11T11:04:26.863Z,2.17
2018-09-11T11:05:31.363Z,2.30
2018-09-11T11:06:35.508Z,2.40
2018-09-11T11:07:40.394Z,2.10
2018-09-11T11:08:44.775Z,2.00
2018-09-11T11:09:48.874Z,2.20
2018-09-11T11:10:53.127Z,2.10
2018-09-11T11:11:57.383Z,2.33
2018-09-11T11:13:02.158Z,2.07
2018-09-11T11:14:06.648Z,2.47
2018-09-11T11:15:10.770Z,4.47
2018-09-11T11:16:14.900Z,3.43
2018-09-11T11:17:19.695Z,2.97
2018-09-11T11:18:23.770Z,3.00
2018-09-11T11:19:27.963Z,2.40
2018-09-11T11:20:32.692Z,2.27
2018-09-11T11:21:36.944Z,2.40
2018-09-11T11:22:41.058Z,2.30
2018-09-11T11:23:45.631Z,2.20
2018-09-11T11:24:50.133Z,2.40
2018-09-11T11:25:54.751Z,2.37
2018-09-11T11:26:58.942Z,2.20
2018-09-11T11:28:02.993Z,2.00
2018-09-11T11:29:07.624Z,2.27
2018-09-11T11:30:12.043Z,2.10
2018-09-11T11:31:16.283Z,2.20
2018-09-11T11:32:20.640Z,2.47
2018-09-11T11:33:25.050Z,2.40
2018-09-11T11:34:29.105Z,2.27
2018-09-11T11:35:33.381Z,2.13
2018-09-11T11:36:37.604Z,2.30
2018-09-11T11:37:41.879Z,2.17
2018-09-11T11:38:46.212Z,2.40
2018-09-11T11:39:50.571Z,2.20
2018-09-11T11:40:54.982Z,2.17
2018-09-11T11:41:59.214Z,2.33
2018-09-11T11:43:03.328Z,2.40
2018-09-11T11:44:07.920Z,2.43
2018-09-11T11:45:12.059Z,2.30
2018-09-11T11:46:16.434Z,2.40
2018-09-11T11:47:21.519Z,2.20
2018-09-11T11:48:25.702Z,2.60
2018-09-11T11:49:29.791Z,2.60
2018-09-11T11:50:33.911Z,2.37
2018-09-11T11:51:38.050Z,2.27
2018-09-11T11:52:42.201Z,2.20
2018-09-11T11:53:46.313Z,2.00
2018-09-11T11:54:50.819Z,2.17
2018-09-11T11:55:54.993Z,2.20
2018-09-11T11:56:59.181Z,2.40
2018-09-11T11:58:03.291Z,2.33
2018-09-11T11:59:07.436Z,2.57
2018-09-11T12:00:11.547Z,2.20
2018-09-11T12:01:15.855Z,2.03
2018-09-11T12:02:20.051Z,2.03
2018-09-11T12:03:24.259Z,2.00
2018-09-11T12:04:28.743Z,2.13
2018-09-11T12:05:37.130Z,2.17
2018-09-11T12:06:41.329Z,2.13
2018-09-11T12:07:45.654Z,2.02
2018-09-11T12:08:49.662Z,2.17
2018-09-11T12:09:53.678Z,2.50
2018-09-11T12:10:57.808Z,2.00
2018-09-11T12:12:02.167Z,2.67
2018-09-11T12:13:06.421Z,2.30
2018-09-11T12:14:10.455Z,2.00
2018-09-11T12:15:14.863Z,2.47
2018-09-11T12:16:19.019Z,2.22
2018-09-11T12:17:23.111Z,2.40
2018-09-11T12:18:27.239Z,2.25
2018-09-11T12:19:31.386Z,1.80
2018-09-11T12:20:35.438Z,2.20
2018-09-11T12:21:39.536Z,2.20
2018-09-11T12:22:43.650Z,2.27
2018-09-11T12:23:47.909Z,2.25
2018-09-11T12:24:52.031Z,2.00
2018-09-11T12:25:56.143Z,1.90
2018-09-11T12:27:00.238Z,2.22
2018-09-11T12:28:04.341Z,2.22
2018-09-11T12:29:08.750Z,2.10
2018-09-11T12:30:12.823Z,1.90
2018-09-11T12:31:16.943Z,2.00
2018-09-11T12:32:21.130Z,2.25
2018-09-11T12:33:25.268Z,2.30
2018-09-11T12:34:29.349Z,2.17
2018-09-11T12:35:33.786Z,2.10
2018-09-11T12:36:38.168Z,2.05
2018-09-11T12:37:42.246Z,2.20
2018-09-11T12:38:46.487Z,2.17
2018-09-11T12:39:50.648Z,2.50
2018-09-11T12:40:54.837Z,2.10
2018-09-11T12:41:58.977Z,2.05
2018-09-11T12:43:03.106Z,2.10
2018-09-11T12:44:07.157Z,2.30
2018-09-11T12:45:11.243Z,2.50
2018-09-11T12:46:15.892Z,2.40
2018-09-11T12:47:20.075Z,2.05
2018-09-11T12:48:24.823Z,2.40
2018-09-11T12:49:28.790Z,2.12
2018-09-11T12:50:32.951Z,2.47
2018-09-11T12:51:37.100Z,2.30
2018-09-11T12:52:41.690Z,2.12
2018-09-11T12:53:45.812Z,2.27
2018-09-11T12:54:50.000Z,2.40
2018-09-11T12:55:54.214Z,2.22
2018-09-11T12:56:58.386Z,2.40
2018-09-11T12:58:02.577Z,2.30
2018-09-11T12:59:06.826Z,2.10
2018-09-11T13:00:11.339Z,2.25
2018-09-11T13:01:15.512Z,1.77
2018-09-11T13:02:19.835Z,2.00
2018-09-11T13:03:23.996Z,2.05
2018-09-11T13:04:28.286Z,2.10
2018-09-11T13:05:32.440Z,2.20
2018-09-11T13:06:37.168Z,2.10
2018-09-11T13:07:41.392Z,2.10
2018-09-11T13:08:45.543Z,2.05
2018-09-11T13:09:49.668Z,2.10
2018-09-11T13:10:53.834Z,2.37
2018-09-11T13:11:58.098Z,2.58
2018-09-11T13:13:02.226Z,2.33
2018-09-11T13:14:06.356Z,2.20
2018-09-11T13:15:10.718Z,2.08
2018-09-11T13:16:14.659Z,2.27
2018-09-11T13:17:18.826Z,2.10
2018-09-11T13:18:23.306Z,2.42
2018-09-11T13:19:27.747Z,1.92
2018-09-11T13:20:32.044Z,2.30
2018-09-11T13:21:36.277Z,2.33
2018-09-11T13:22:40.590Z,2.40
2018-09-11T13:23:44.916Z,2.20
2018-09-11T13:24:49.101Z,2.73
2018-09-11T13:25:53.267Z,2.30
2018-09-11T13:26:57.913Z,2.10
2018-09-11T13:28:02.113Z,1.80
2018-09-11T13:29:06.742Z,2.27
2018-09-11T13:30:10.932Z,2.10
2018-09-11T13:31:15.444Z,2.20
2018-09-11T13:32:19.615Z,2.20
2018-09-11T13:33:24.318Z,2.08
2018-09-11T13:34:28.579Z,2.20
2018-09-11T13:35:32.724Z,2.30
2018-09-11T13:36:36.976Z,2.15
2018-09-11T13:37:41.493Z,2.17
2018-09-11T13:38:45.760Z,2.00
2018-09-11T13:39:50.199Z,2.27
2018-09-11T13:40:54.296Z,1.80
2018-09-11T13:41:58.831Z,2.10
2018-09-11T13:43:03.116Z,2.10
2018-09-11T13:44:07.363Z,2.30
2018-09-11T13:45:11.499Z,2.10
2018-09-11T13:46:15.886Z,2.00
2018-09-11T13:47:20.112Z,2.52
2018-09-11T13:48:24.570Z,1.83
2018-09-11T13:49:28.852Z,2.10
2018-09-11T13:50:33.124Z,2.10
2018-09-11T13:51:37.517Z,2.17
2018-09-11T13:52:42.583Z,1.97
2018-09-11T13:53:46.939Z,2.00
2018-09-11T13:54:51.159Z,2.10
2018-09-11T13:55:55.407Z,2.00
2018-09-11T13:56:59.618Z,2.20
2018-09-11T13:58:04.175Z,2.27
2018-09-11T13:59:08.215Z,2.27
2018-09-11T14:00:12.342Z,1.90
2018-09-11T14:01:16.651Z,1.90
2018-09-11T14:02:20.882Z,2.00
2018-09-11T14:03:25.016Z,2.20
2018-09-11T14:04:29.167Z,2.07
2018-09-11T14:05:33.403Z,2.00
2018-09-11T14:06:37.463Z,2.30
2018-09-11T14:07:41.546Z,1.90
2018-09-11T14:08:45.681Z,2.03
2018-09-11T14:09:49.759Z,2.17
2018-09-11T14:10:53.855Z,2.10
2018-09-11T14:11:57.961Z,2.00
2018-09-11T14:13:02.301Z,2.07
2018-09-11T14:14:06.346Z,2.20
2018-09-11T14:15:10.392Z,2.10
2018-09-11T14:16:14.954Z,2.53
2018-09-11T14:17:19.378Z,2.10